Terminal Aerodrome Forecast
Issued by NWS Tuscon, AZ

Home | Current Version | Previous Version | Text Only | Print | Product List | Glossary On
Versions: 1 2 3 4 5 6 7 8 9 10 11 12 13 14
000
FTUS45 KTWC 200520
TAFDUG
TAF
KDUG 200520Z 2006/2106 21012KT P6SM SCT250
     FM200900 28008KT P6SM SKC
     FM201700 29014G22KT P6SM SKC
     FM202000 30020G30KT P6SM SKC
     FM210200 32013KT P6SM SKC=

USA.gov is the U.S. government's official web portal to all federal, state and local government web resources and services.